sensor_id;sensor_type;location;lat;lon;timestamp;P1;durP1;ratioP1;P2;durP2;ratioP2
31210;SDS011;17836;50.948;3.946;2023-03-11T09:30:39;0.20;;;0.20;;
31210;SDS011;17836;50.948;3.946;2023-03-11T09:33:04;0.30;;;0.30;;
31210;SDS011;17836;50.948;3.946;2023-03-11T09:35:30;0.20;;;0.20;;
31210;SDS011;17836;50.948;3.946;2023-03-11T09:37:55;0.20;;;0.20;;
31210;SDS011;17836;50.948;3.946;2023-03-11T09:40:21;0.20;;;0.20;;
31210;SDS011;17836;50.948;3.946;2023-03-11T09:43:01;0.20;;;0.20;;
31210;SDS011;17836;50.948;3.946;2023-03-11T09:45:29;0.20;;;0.20;;
31210;SDS011;17836;50.948;3.946;2023-03-11T09:50:25;2.00;;;1.38;;
31210;SDS011;17836;50.948;3.946;2023-03-11T09:58:08;0.40;;;0.40;;
31210;SDS011;17836;50.948;3.946;2023-03-11T10:00:37;0.20;;;0.20;;
31210;SDS011;17836;50.948;3.946;2023-03-11T10:03:04;0.20;;;0.20;;
31210;SDS011;17836;50.948;3.946;2023-03-11T10:05:33;0.85;;;0.85;;
31210;SDS011;17836;50.948;3.946;2023-03-11T10:10:24;1.90;;;0.77;;
31210;SDS011;17836;50.948;3.946;2023-03-11T10:13:12;1.05;;;0.43;;
31210;SDS011;17836;50.948;3.946;2023-03-11T10:20:33;0.20;;;0.20;;
31210;SDS011;17836;50.948;3.946;2023-03-11T10:28:45;0.10;;;0.10;;
31210;SDS011;17836;50.948;3.946;2023-03-11T10:33:48;0.10;;;0.10;;
31210;SDS011;17836;50.948;3.946;2023-03-11T10:36:22;0.10;;;0.10;;
31210;SDS011;17836;50.948;3.946;2023-03-11T10:38:49;0.10;;;0.10;;
31210;SDS011;17836;50.948;3.946;2023-03-11T10:44:03;0.10;;;0.10;;
31210;SDS011;17836;50.948;3.946;2023-03-11T10:46:30;0.10;;;0.10;;
31210;SDS011;17836;50.948;3.946;2023-03-11T10:48:55;0.20;;;0.20;;
31210;SDS011;17836;50.948;3.946;2023-03-11T10:51:30;0.60;;;0.53;;
31210;SDS011;17836;50.948;3.946;2023-03-11T10:53:59;0.10;;;0.10;;
31210;SDS011;17836;50.948;3.946;2023-03-11T10:56:26;0.10;;;0.10;;
31210;SDS011;17836;50.948;3.946;2023-03-11T10:58:51;7.38;;;1.85;;
31210;SDS011;17836;50.948;3.946;2023-03-11T11:01:17;0.20;;;0.20;;
31210;SDS011;17836;50.948;3.946;2023-03-11T11:03:46;0.35;;;0.35;;
31210;SDS011;17836;50.948;3.946;2023-03-11T11:09:05;0.20;;;0.20;;
31210;SDS011;17836;50.948;3.946;2023-03-11T11:11:31;0.30;;;0.30;;
31210;SDS011;17836;50.948;3.946;2023-03-11T11:13:57;0.40;;;0.40;;
31210;SDS011;17836;50.948;3.946;2023-03-11T11:16:23;0.10;;;0.10;;
31210;SDS011;17836;50.948;3.946;2023-03-11T11:19:10;0.17;;;0.17;;
31210;SDS011;17836;50.948;3.946;2023-03-11T11:27:05;0.20;;;0.20;;
31210;SDS011;17836;50.948;3.946;2023-03-11T11:29:30;0.10;;;0.10;;
31210;SDS011;17836;50.948;3.946;2023-03-11T11:32:18;0.30;;;0.30;;
31210;SDS011;17836;50.948;3.946;2023-03-11T11:34:43;0.65;;;0.65;;
31210;SDS011;17836;50.948;3.946;2023-03-11T11:37:19;0.60;;;0.60;;
31210;SDS011;17836;50.948;3.946;2023-03-11T11:39:49;0.10;;;0.10;;
31210;SDS011;17836;50.948;3.946;2023-03-11T11:42:19;0.20;;;0.20;;
31210;SDS011;17836;50.948;3.946;2023-03-11T11:44:48;0.20;;;0.20;;
31210;SDS011;17836;50.948;3.946;2023-03-11T11:47:16;0.20;;;0.20;;
31210;SDS011;17836;50.948;3.946;2023-03-11T11:49:52;0.20;;;0.20;;
31210;SDS011;17836;50.948;3.946;2023-03-11T11:52:20;0.17;;;0.17;;
31210;SDS011;17836;50.948;3.946;2023-03-11T11:54:49;0.20;;;0.20;;
31210;SDS011;17836;50.948;3.946;2023-03-11T11:57:19;0.20;;;0.20;;
31210;SDS011;17836;50.948;3.946;2023-03-11T11:59:45;0.20;;;0.20;;
31210;SDS011;17836;50.948;3.946;2023-03-11T12:12:52;8.35;;;1.98;;
31210;SDS011;17836;50.948;3.946;2023-03-11T12:15:26;5.28;;;2.00;;
31210;SDS011;17836;50.948;3.946;2023-03-11T12:17:54;5.43;;;1.95;;
31210;SDS011;17836;50.948;3.946;2023-03-11T12:20:34;17.15;;;2.50;;
31210;SDS011;17836;50.948;3.946;2023-03-11T12:30:35;5.53;;;1.73;;
31210;SDS011;17836;50.948;3.946;2023-03-11T12:33:03;6.85;;;1.85;;
31210;SDS011;17836;50.948;3.946;2023-03-11T12:35:30;7.45;;;1.60;;
31210;SDS011;17836;50.948;3.946;2023-03-11T12:45:52;6.15;;;1.48;;
31210;SDS011;17836;50.948;3.946;2023-03-11T12:50:54;6.05;;;1.80;;
31210;SDS011;17836;50.948;3.946;2023-03-11T12:53:19;5.82;;;2.00;;
31210;SDS011;17836;50.948;3.946;2023-03-11T12:55:59;11.52;;;2.72;;
31210;SDS011;17836;50.948;3.946;2023-03-11T13:00:56;6.43;;;1.73;;
31210;SDS011;17836;50.948;3.946;2023-03-11T13:03:36;4.40;;;1.65;;
31210;SDS011;17836;50.948;3.946;2023-03-11T13:06:12;9.88;;;2.72;;
31210;SDS011;17836;50.948;3.946;2023-03-11T13:11:32;22.33;;;11.60;;
31210;SDS011;17836;50.948;3.946;2023-03-11T13:14:09;5.25;;;2.15;;
31210;SDS011;17836;50.948;3.946;2023-03-11T13:16:40;2.80;;;1.42;;
31210;SDS011;17836;50.948;3.946;2023-03-11T13:21:49;4.60;;;1.80;;
31210;SDS011;17836;50.948;3.946;2023-03-11T13:39:38;9.63;;;6.10;;
31210;SDS011;17836;50.948;3.946;2023-03-11T13:44:56;7.38;;;2.17;;
31210;SDS011;17836;50.948;3.946;2023-03-11T13:47:22;7.28;;;1.88;;
31210;SDS011;17836;50.948;3.946;2023-03-11T13:49:50;4.18;;;1.10;;
31210;SDS011;17836;50.948;3.946;2023-03-11T13:52:28;2.97;;;1.48;;
31210;SDS011;17836;50.948;3.946;2023-03-11T13:55:02;2.75;;;1.08;;
31210;SDS011;17836;50.948;3.946;2023-03-11T13:57:30;4.22;;;1.00;;
31210;SDS011;17836;50.948;3.946;2023-03-11T13:59:56;3.30;;;1.17;;
31210;SDS011;17836;50.948;3.946;2023-03-11T14:02:22;6.47;;;1.60;;
31210;SDS011;17836;50.948;3.946;2023-03-11T14:05:02;6.47;;;1.05;;
31210;SDS011;17836;50.948;3.946;2023-03-11T14:07:29;2.43;;;0.90;;
31210;SDS011;17836;50.948;3.946;2023-03-11T14:10:13;2.40;;;1.25;;
31210;SDS011;17836;50.948;3.946;2023-03-11T14:12:39;6.15;;;1.30;;
31210;SDS011;17836;50.948;3.946;2023-03-11T14:15:06;9.03;;;1.70;;
31210;SDS011;17836;50.948;3.946;2023-03-11T14:17:32;3.40;;;1.23;;
31210;SDS011;17836;50.948;3.946;2023-03-11T14:20:04;2.97;;;1.20;;
31210;SDS011;17836;50.948;3.946;2023-03-11T14:22:32;5.72;;;1.20;;
31210;SDS011;17836;50.948;3.946;2023-03-11T14:25:00;6.90;;;1.45;;
31210;SDS011;17836;50.948;3.946;2023-03-11T14:29:54;5.30;;;1.20;;
31210;SDS011;17836;50.948;3.946;2023-03-11T14:34:52;8.27;;;2.00;;
31210;SDS011;17836;50.948;3.946;2023-03-11T14:39:54;5.30;;;1.70;;
31210;SDS011;17836;50.948;3.946;2023-03-11T14:42:27;5.13;;;1.65;;
31210;SDS011;17836;50.948;3.946;2023-03-11T14:47:34;4.10;;;1.00;;
31210;SDS011;17836;50.948;3.946;2023-03-11T14:50:01;3.97;;;1.20;;
31210;SDS011;17836;50.948;3.946;2023-03-11T14:52:35;4.40;;;1.38;;
31210;SDS011;17836;50.948;3.946;2023-03-11T14:55:04;5.00;;;1.73;;
31210;SDS011;17836;50.948;3.946;2023-03-11T14:57:35;3.88;;;1.98;;
31210;SDS011;17836;50.948;3.946;2023-03-11T15:02:29;7.80;;;2.30;;
31210;SDS011;17836;50.948;3.946;2023-03-11T15:04:56;6.75;;;3.40;;
31210;SDS011;17836;50.948;3.946;2023-03-11T15:07:22;4.10;;;1.42;;
31210;SDS011;17836;50.948;3.946;2023-03-11T15:09:50;5.07;;;1.92;;
31210;SDS011;17836;50.948;3.946;2023-03-11T15:12:28;6.00;;;1.55;;
31210;SDS011;17836;50.948;3.946;2023-03-11T15:14:54;4.82;;;2.22;;
31210;SDS011;17836;50.948;3.946;2023-03-11T15:19:44;6.27;;;1.57;;
31210;SDS011;17836;50.948;3.946;2023-03-11T15:24:41;4.95;;;1.35;;
31210;SDS011;17836;50.948;3.946;2023-03-11T15:27:18;5.40;;;1.88;;
31210;SDS011;17836;50.948;3.946;2023-03-11T15:29:51;11.27;;;2.13;;
31210;SDS011;17836;50.948;3.946;2023-03-11T15:35:01;4.55;;;1.25;;
31210;SDS011;17836;50.948;3.946;2023-03-11T15:37:28;5.65;;;1.52;;
31210;SDS011;17836;50.948;3.946;2023-03-11T15:39:55;3.20;;;1.30;;
31210;SDS011;17836;50.948;3.946;2023-03-11T15:42:22;9.30;;;2.10;;
31210;SDS011;17836;50.948;3.946;2023-03-11T15:49:39;13.25;;;2.10;;
31210;SDS011;17836;50.948;3.946;2023-03-11T15:52:04;3.30;;;1.52;;
31210;SDS011;17836;50.948;3.946;2023-03-11T15:54:30;7.47;;;1.92;;
31210;SDS011;17836;50.948;3.946;2023-03-11T15:56:56;11.77;;;2.10;;
31210;SDS011;17836;50.948;3.946;2023-03-11T15:59:24;6.28;;;1.75;;
31210;SDS011;17836;50.948;3.946;2023-03-11T16:01:50;5.47;;;1.77;;
31210;SDS011;17836;50.948;3.946;2023-03-11T16:04:17;10.48;;;1.85;;
31210;SDS011;17836;50.948;3.946;2023-03-11T16:06:46;6.60;;;1.50;;
31210;SDS011;17836;50.948;3.946;2023-03-11T16:09:12;5.35;;;1.45;;
31210;SDS011;17836;50.948;3.946;2023-03-11T16:11:38;3.28;;;1.35;;
31210;SDS011;17836;50.948;3.946;2023-03-11T16:14:04;6.03;;;1.50;;
31210;SDS011;17836;50.948;3.946;2023-03-11T16:16:29;6.10;;;2.10;;
31210;SDS011;17836;50.948;3.946;2023-03-11T16:18:55;6.25;;;2.08;;
31210;SDS011;17836;50.948;3.946;2023-03-11T16:21:21;4.70;;;1.67;;
31210;SDS011;17836;50.948;3.946;2023-03-11T16:23:50;10.77;;;2.40;;
31210;SDS011;17836;50.948;3.946;2023-03-11T16:26:15;5.57;;;1.90;;
31210;SDS011;17836;50.948;3.946;2023-03-11T16:28:41;5.87;;;1.77;;
31210;SDS011;17836;50.948;3.946;2023-03-11T16:31:06;5.18;;;1.55;;
31210;SDS011;17836;50.948;3.946;2023-03-11T16:33:35;4.60;;;1.65;;
31210;SDS011;17836;50.948;3.946;2023-03-11T16:36:00;5.32;;;1.92;;
31210;SDS011;17836;50.948;3.946;2023-03-11T16:38:26;5.88;;;2.50;;
31210;SDS011;17836;50.948;3.946;2023-03-11T16:40:56;13.48;;;2.17;;
31210;SDS011;17836;50.948;3.946;2023-03-11T16:43:21;7.80;;;2.90;;
31210;SDS011;17836;50.948;3.946;2023-03-11T16:45:47;6.28;;;3.28;;
31210;SDS011;17836;50.948;3.946;2023-03-11T16:48:12;7.40;;;2.20;;
31210;SDS011;17836;50.948;3.946;2023-03-11T16:50:37;7.03;;;2.45;;
31210;SDS011;17836;50.948;3.946;2023-03-11T16:53:03;10.53;;;3.40;;
31210;SDS011;17836;50.948;3.946;2023-03-11T16:55:29;12.52;;;4.70;;
31210;SDS011;17836;50.948;3.946;2023-03-11T16:57:54;3.40;;;2.20;;
31210;SDS011;17836;50.948;3.946;2023-03-11T17:00:23;9.10;;;2.75;;
31210;SDS011;17836;50.948;3.946;2023-03-11T17:02:49;16.17;;;5.35;;
31210;SDS011;17836;50.948;3.946;2023-03-11T17:05:14;11.55;;;4.18;;
31210;SDS011;17836;50.948;3.946;2023-03-11T17:07:41;8.65;;;4.50;;
31210;SDS011;17836;50.948;3.946;2023-03-11T17:10:07;7.47;;;3.27;;
31210;SDS011;17836;50.948;3.946;2023-03-11T17:12:33;7.32;;;4.93;;
31210;SDS011;17836;50.948;3.946;2023-03-11T17:15:00;10.07;;;4.72;;
31210;SDS011;17836;50.948;3.946;2023-03-11T17:17:25;7.30;;;3.85;;
31210;SDS011;17836;50.948;3.946;2023-03-11T17:19:53;6.37;;;4.07;;
31210;SDS011;17836;50.948;3.946;2023-03-11T17:22:18;11.65;;;4.45;;
31210;SDS011;17836;50.948;3.946;2023-03-11T17:24:45;11.98;;;5.03;;
31210;SDS011;17836;50.948;3.946;2023-03-11T17:27:11;7.05;;;4.00;;
31210;SDS011;17836;50.948;3.946;2023-03-11T17:29:36;7.05;;;4.30;;
31210;SDS011;17836;50.948;3.946;2023-03-11T17:32:04;6.47;;;3.97;;
31210;SDS011;17836;50.948;3.946;2023-03-11T17:34:32;10.75;;;3.75;;
31210;SDS011;17836;50.948;3.946;2023-03-11T17:36:58;5.73;;;3.70;;
31210;SDS011;17836;50.948;3.946;2023-03-11T17:39:23;9.05;;;2.88;;
31210;SDS011;17836;50.948;3.946;2023-03-11T17:41:48;5.95;;;3.50;;
31210;SDS011;17836;50.948;3.946;2023-03-11T17:44:14;6.97;;;3.00;;
31210;SDS011;17836;50.948;3.946;2023-03-11T17:46:39;6.10;;;2.85;;
31210;SDS011;17836;50.948;3.946;2023-03-11T17:49:05;4.82;;;2.85;;
31210;SDS011;17836;50.948;3.946;2023-03-11T17:51:33;7.85;;;3.53;;
31210;SDS011;17836;50.948;3.946;2023-03-11T17:54:00;10.20;;;3.47;;
31210;SDS011;17836;50.948;3.946;2023-03-11T17:56:28;7.50;;;3.30;;
31210;SDS011;17836;50.948;3.946;2023-03-11T17:58:56;6.83;;;3.57;;
31210;SDS011;17836;50.948;3.946;2023-03-11T18:01:23;8.93;;;4.13;;
31210;SDS011;17836;50.948;3.946;2023-03-11T18:03:53;7.90;;;4.47;;
31210;SDS011;17836;50.948;3.946;2023-03-11T18:06:18;12.35;;;5.88;;
31210;SDS011;17836;50.948;3.946;2023-03-11T18:08:44;8.63;;;5.60;;
31210;SDS011;17836;50.948;3.946;2023-03-11T18:11:10;11.95;;;5.72;;
31210;SDS011;17836;50.948;3.946;2023-03-11T18:13:37;9.27;;;5.20;;
31210;SDS011;17836;50.948;3.946;2023-03-11T18:16:22;12.27;;;5.18;;
31210;SDS011;17836;50.948;3.946;2023-03-11T18:18:48;9.00;;;3.00;;
31210;SDS011;17836;50.948;3.946;2023-03-11T18:21:14;9.18;;;3.08;;
31210;SDS011;17836;50.948;3.946;2023-03-11T18:23:40;4.05;;;2.10;;
31210;SDS011;17836;50.948;3.946;2023-03-11T18:26:06;5.38;;;2.50;;
31210;SDS011;17836;50.948;3.946;2023-03-11T18:28:32;6.72;;;3.13;;
31210;SDS011;17836;50.948;3.946;2023-03-11T18:31:08;4.90;;;2.47;;
31210;SDS011;17836;50.948;3.946;2023-03-11T18:33:34;5.90;;;2.70;;
31210;SDS011;17836;50.948;3.946;2023-03-11T18:36:09;6.55;;;2.75;;
31210;SDS011;17836;50.948;3.946;2023-03-11T18:38:37;6.57;;;3.05;;
31210;SDS011;17836;50.948;3.946;2023-03-11T18:41:03;7.30;;;3.15;;
31210;SDS011;17836;50.948;3.946;2023-03-11T18:43:28;9.98;;;2.58;;
31210;SDS011;17836;50.948;3.946;2023-03-11T18:45:53;10.13;;;3.40;;
31210;SDS011;17836;50.948;3.946;2023-03-11T18:48:19;8.13;;;4.47;;
31210;SDS011;17836;50.948;3.946;2023-03-11T18:50:49;11.45;;;4.20;;
31210;SDS011;17836;50.948;3.946;2023-03-11T18:53:14;15.00;;;5.72;;
31210;SDS011;17836;50.948;3.946;2023-03-11T18:55:40;16.48;;;7.43;;
31210;SDS011;17836;50.948;3.946;2023-03-11T18:58:05;9.48;;;6.28;;
31210;SDS011;17836;50.948;3.946;2023-03-11T19:00:33;19.60;;;10.38;;
31210;SDS011;17836;50.948;3.946;2023-03-11T19:03:00;39.80;;;19.13;;
31210;SDS011;17836;50.948;3.946;2023-03-11T19:05:26;42.97;;;20.30;;
31210;SDS011;17836;50.948;3.946;2023-03-11T19:07:51;48.40;;;25.15;;
31210;SDS011;17836;50.948;3.946;2023-03-11T19:10:19;71.85;;;33.78;;
31210;SDS011;17836;50.948;3.946;2023-03-11T19:12:44;69.70;;;35.92;;
31210;SDS011;17836;50.948;3.946;2023-03-11T19:15:12;66.95;;;35.83;;
31210;SDS011;17836;50.948;3.946;2023-03-11T19:17:40;53.95;;;27.50;;
31210;SDS011;17836;50.948;3.946;2023-03-11T19:20:05;54.20;;;28.90;;
31210;SDS011;17836;50.948;3.946;2023-03-11T19:22:33;22.65;;;14.40;;
31210;SDS011;17836;50.948;3.946;2023-03-11T19:24:58;30.30;;;15.40;;
31210;SDS011;17836;50.948;3.946;2023-03-11T19:27:23;15.77;;;10.93;;
31210;SDS011;17836;50.948;3.946;2023-03-11T19:29:49;17.77;;;8.32;;
31210;SDS011;17836;50.948;3.946;2023-03-11T19:32:14;13.43;;;7.43;;
31210;SDS011;17836;50.948;3.946;2023-03-11T19:34:58;14.20;;;6.60;;
31210;SDS011;17836;50.948;3.946;2023-03-11T19:37:26;14.18;;;7.00;;
31210;SDS011;17836;50.948;3.946;2023-03-11T19:39:51;15.13;;;7.45;;
31210;SDS011;17836;50.948;3.946;2023-03-11T19:42:16;10.37;;;6.57;;
31210;SDS011;17836;50.948;3.946;2023-03-11T19:44:41;12.57;;;7.05;;
31210;SDS011;17836;50.948;3.946;2023-03-11T19:47:07;15.03;;;7.27;;
31210;SDS011;17836;50.948;3.946;2023-03-11T19:49:32;14.50;;;8.30;;
31210;SDS011;17836;50.948;3.946;2023-03-11T19:51:57;10.80;;;7.78;;
31210;SDS011;17836;50.948;3.946;2023-03-11T19:54:22;12.90;;;8.80;;
31210;SDS011;17836;50.948;3.946;2023-03-11T19:56:48;14.23;;;9.55;;
31210;SDS011;17836;50.948;3.946;2023-03-11T19:59:14;12.73;;;9.00;;
31210;SDS011;17836;50.948;3.946;2023-03-11T20:01:39;13.02;;;8.90;;
31210;SDS011;17836;50.948;3.946;2023-03-11T20:04:06;17.23;;;8.75;;
31210;SDS011;17836;50.948;3.946;2023-03-11T20:06:32;14.20;;;7.55;;
31210;SDS011;17836;50.948;3.946;2023-03-11T20:08:57;11.40;;;7.85;;
31210;SDS011;17836;50.948;3.946;2023-03-11T20:11:22;10.88;;;7.18;;
31210;SDS011;17836;50.948;3.946;2023-03-11T20:13:48;22.40;;;8.13;;
31210;SDS011;17836;50.948;3.946;2023-03-11T20:16:14;14.93;;;8.82;;
31210;SDS011;17836;50.948;3.946;2023-03-11T20:18:39;19.02;;;8.65;;
31210;SDS011;17836;50.948;3.946;2023-03-11T20:21:13;17.38;;;9.55;;
31210;SDS011;17836;50.948;3.946;2023-03-11T20:23:41;14.90;;;8.25;;
31210;SDS011;17836;50.948;3.946;2023-03-11T20:26:16;16.33;;;9.32;;
31210;SDS011;17836;50.948;3.946;2023-03-11T20:28:41;17.50;;;9.48;;
31210;SDS011;17836;50.948;3.946;2023-03-11T20:31:12;15.40;;;8.77;;
31210;SDS011;17836;50.948;3.946;2023-03-11T20:33:38;13.73;;;8.52;;
31210;SDS011;17836;50.948;3.946;2023-03-11T20:36:04;15.32;;;8.75;;
31210;SDS011;17836;50.948;3.946;2023-03-11T20:38:29;16.50;;;9.05;;
31210;SDS011;17836;50.948;3.946;2023-03-11T20:40:55;14.70;;;8.63;;
31210;SDS011;17836;50.948;3.946;2023-03-11T20:43:23;14.63;;;8.85;;
31210;SDS011;17836;50.948;3.946;2023-03-11T20:45:48;15.77;;;9.57;;
31210;SDS011;17836;50.948;3.946;2023-03-11T20:48:13;15.27;;;9.63;;
31210;SDS011;17836;50.948;3.946;2023-03-11T20:50:41;15.57;;;9.50;;
31210;SDS011;17836;50.948;3.946;2023-03-11T20:53:06;15.57;;;10.18;;
31210;SDS011;17836;50.948;3.946;2023-03-11T20:55:31;25.80;;;12.82;;
31210;SDS011;17836;50.948;3.946;2023-03-11T20:57:57;30.83;;;16.42;;
31210;SDS011;17836;50.948;3.946;2023-03-11T21:00:22;32.30;;;17.10;;
31210;SDS011;17836;50.948;3.946;2023-03-11T21:02:47;19.95;;;13.45;;
31210;SDS011;17836;50.948;3.946;2023-03-11T21:05:13;21.98;;;12.20;;
31210;SDS011;17836;50.948;3.946;2023-03-11T21:07:38;14.05;;;10.85;;
31210;SDS011;17836;50.948;3.946;2023-03-11T21:10:07;16.73;;;10.60;;
31210;SDS011;17836;50.948;3.946;2023-03-11T21:12:33;20.30;;;10.23;;
31210;SDS011;17836;50.948;3.946;2023-03-11T21:14:58;15.50;;;10.52;;
31210;SDS011;17836;50.948;3.946;2023-03-11T21:17:23;18.05;;;8.63;;
31210;SDS011;17836;50.948;3.946;2023-03-11T21:19:49;14.73;;;9.75;;
31210;SDS011;17836;50.948;3.946;2023-03-11T21:22:14;14.88;;;8.23;;
31210;SDS011;17836;50.948;3.946;2023-03-11T21:24:39;11.52;;;7.10;;
31210;SDS011;17836;50.948;3.946;2023-03-11T21:27:07;21.80;;;7.75;;
31210;SDS011;17836;50.948;3.946;2023-03-11T21:29:33;12.48;;;7.57;;
31210;SDS011;17836;50.948;3.946;2023-03-11T21:31:58;15.38;;;7.05;;
31210;SDS011;17836;50.948;3.946;2023-03-11T21:34:23;11.23;;;6.47;;
31210;SDS011;17836;50.948;3.946;2023-03-11T21:36:49;10.57;;;6.75;;
31210;SDS011;17836;50.948;3.946;2023-03-11T21:39:14;13.73;;;6.07;;
31210;SDS011;17836;50.948;3.946;2023-03-11T21:41:39;6.13;;;5.50;;
31210;SDS011;17836;50.948;3.946;2023-03-11T21:44:05;10.57;;;5.65;;
31210;SDS011;17836;50.948;3.946;2023-03-11T21:46:31;11.93;;;6.50;;
31210;SDS011;17836;50.948;3.946;2023-03-11T21:48:56;11.70;;;4.93;;
31210;SDS011;17836;50.948;3.946;2023-03-11T21:51:22;8.43;;;5.22;;
31210;SDS011;17836;50.948;3.946;2023-03-11T21:53:48;12.65;;;6.10;;
31210;SDS011;17836;50.948;3.946;2023-03-11T21:56:16;10.57;;;5.80;;
31210;SDS011;17836;50.948;3.946;2023-03-11T21:58:41;11.63;;;5.80;;
31210;SDS011;17836;50.948;3.946;2023-03-11T22:01:07;15.10;;;6.88;;
31210;SDS011;17836;50.948;3.946;2023-03-11T22:03:33;12.32;;;6.80;;
31210;SDS011;17836;50.948;3.946;2023-03-11T22:06:04;14.07;;;6.07;;
31210;SDS011;17836;50.948;3.946;2023-03-11T22:08:29;12.13;;;5.47;;
31210;SDS011;17836;50.948;3.946;2023-03-11T22:10:55;13.43;;;6.18;;
31210;SDS011;17836;50.948;3.946;2023-03-11T22:13:20;16.40;;;5.50;;
31210;SDS011;17836;50.948;3.946;2023-03-11T22:15:46;10.80;;;5.95;;
31210;SDS011;17836;50.948;3.946;2023-03-11T22:18:13;20.60;;;5.18;;
31210;SDS011;17836;50.948;3.946;2023-03-11T22:20:41;5.45;;;3.83;;
31210;SDS011;17836;50.948;3.946;2023-03-11T22:23:09;9.02;;;4.32;;
31210;SDS011;17836;50.948;3.946;2023-03-11T22:25:37;14.30;;;3.90;;
31210;SDS011;17836;50.948;3.946;2023-03-11T22:28:02;14.05;;;4.03;;
31210;SDS011;17836;50.948;3.946;2023-03-11T22:30:34;8.73;;;4.40;;
31210;SDS011;17836;50.948;3.946;2023-03-11T22:32:59;13.73;;;5.37;;
31210;SDS011;17836;50.948;3.946;2023-03-11T22:35:24;9.25;;;4.30;;
31210;SDS011;17836;50.948;3.946;2023-03-11T22:37:50;9.23;;;3.97;;
31210;SDS011;17836;50.948;3.946;2023-03-11T22:40:15;18.63;;;4.60;;
31210;SDS011;17836;50.948;3.946;2023-03-11T22:42:40;9.20;;;3.97;;
31210;SDS011;17836;50.948;3.946;2023-03-11T22:45:06;12.90;;;4.93;;
31210;SDS011;17836;50.948;3.946;2023-03-11T22:47:32;9.13;;;4.78;;
31210;SDS011;17836;50.948;3.946;2023-03-11T22:49:57;6.65;;;4.65;;
31210;SDS011;17836;50.948;3.946;2023-03-11T22:52:22;7.38;;;4.05;;
31210;SDS011;17836;50.948;3.946;2023-03-11T22:54:47;7.45;;;4.22;;
31210;SDS011;17836;50.948;3.946;2023-03-11T22:57:15;11.38;;;3.50;;
31210;SDS011;17836;50.948;3.946;2023-03-11T22:59:40;6.18;;;4.10;;
31210;SDS011;17836;50.948;3.946;2023-03-11T23:02:06;5.88;;;3.50;;
31210;SDS011;17836;50.948;3.946;2023-03-11T23:04:33;10.88;;;4.50;;
31210;SDS011;17836;50.948;3.946;2023-03-11T23:06:59;6.50;;;3.42;;
31210;SDS011;17836;50.948;3.946;2023-03-11T23:09:24;13.82;;;4.10;;
31210;SDS011;17836;50.948;3.946;2023-03-11T23:11:50;11.73;;;4.65;;
31210;SDS011;17836;50.948;3.946;2023-03-11T23:14:15;8.15;;;4.00;;
31210;SDS011;17836;50.948;3.946;2023-03-11T23:16:41;5.35;;;3.80;;
31210;SDS011;17836;50.948;3.946;2023-03-11T23:19:09;14.70;;;4.15;;
31210;SDS011;17836;50.948;3.946;2023-03-11T23:21:34;17.35;;;4.30;;
31210;SDS011;17836;50.948;3.946;2023-03-11T23:24:00;9.75;;;4.53;;
31210;SDS011;17836;50.948;3.946;2023-03-11T23:26:26;9.38;;;5.10;;
31210;SDS011;17836;50.948;3.946;2023-03-11T23:28:51;9.55;;;5.28;;
31210;SDS011;17836;50.948;3.946;2023-03-11T23:31:17;9.93;;;4.82;;
31210;SDS011;17836;50.948;3.946;2023-03-11T23:33:43;9.05;;;5.07;;
31210;SDS011;17836;50.948;3.946;2023-03-11T23:36:12;14.15;;;5.90;;
31210;SDS011;17836;50.948;3.946;2023-03-11T23:38:38;15.70;;;6.07;;
31210;SDS011;17836;50.948;3.946;2023-03-11T23:41:04;12.30;;;4.78;;
31210;SDS011;17836;50.948;3.946;2023-03-11T23:43:30;11.57;;;5.07;;
31210;SDS011;17836;50.948;3.946;2023-03-11T23:45:55;11.10;;;4.80;;
31210;SDS011;17836;50.948;3.946;2023-03-11T23:48:23;9.73;;;4.82;;
31210;SDS011;17836;50.948;3.946;2023-03-11T23:50:48;5.28;;;4.20;;
31210;SDS011;17836;50.948;3.946;2023-03-11T23:53:14;6.97;;;4.35;;
31210;SDS011;17836;50.948;3.946;2023-03-11T23:55:42;11.48;;;5.00;;
31210;SDS011;17836;50.948;3.946;2023-03-11T23:58:08;8.15;;;5.20;;
